sensor_id;sensor_type;location;lat;lon;timestamp;pressure;altitude;pressure_sealevel;temperature;humidity
54948;BME280;41113;41.882;12.530;2023-04-22T00:00:27;100795.59;;;14.66;71.97
54948;BME280;41113;41.882;12.530;2023-04-22T00:02:53;100789.44;;;14.55;72.41
54948;BME280;41113;41.882;12.530;2023-04-22T00:05:20;100796.22;;;14.59;71.85
54948;BME280;41113;41.882;12.530;2023-04-22T00:07:45;100795.31;;;14.51;73.00
54948;BME280;41113;41.882;12.530;2023-04-22T00:10:10;100797.81;;;14.44;73.24
54948;BME280;41113;41.882;12.530;2023-04-22T00:12:36;100802.97;;;14.38;73.06
54948;BME280;41113;41.882;12.530;2023-04-22T00:15:01;100798.41;;;14.38;73.52
54948;BME280;41113;41.882;12.530;2023-04-22T00:17:27;100793.66;;;14.32;74.08
54948;BME280;41113;41.882;12.530;2023-04-22T00:19:52;100791.31;;;14.37;73.94
54948;BME280;41113;41.882;12.530;2023-04-22T00:22:18;100793.34;;;14.35;73.48
54948;BME280;41113;41.882;12.530;2023-04-22T00:24:44;100791.31;;;14.37;74.06
54948;BME280;41113;41.882;12.530;2023-04-22T00:27:09;100795.34;;;14.33;74.30
54948;BME280;41113;41.882;12.530;2023-04-22T00:29:36;100794.19;;;14.18;75.10
54948;BME280;41113;41.882;12.530;2023-04-22T00:32:02;100784.72;;;14.14;75.31
54948;BME280;41113;41.882;12.530;2023-04-22T00:34:27;100795.00;;;14.10;75.75
54948;BME280;41113;41.882;12.530;2023-04-22T00:36:53;100794.09;;;14.01;76.28
54948;BME280;41113;41.882;12.530;2023-04-22T00:39:18;100790.69;;;13.99;76.37
54948;BME280;41113;41.882;12.530;2023-04-22T00:41:44;100793.41;;;13.99;75.87
54948;BME280;41113;41.882;12.530;2023-04-22T00:44:11;100787.91;;;13.91;76.88
54948;BME280;41113;41.882;12.530;2023-04-22T00:46:37;100794.94;;;13.84;77.44
54948;BME280;41113;41.882;12.530;2023-04-22T00:49:03;100792.22;;;13.84;77.33
54948;BME280;41113;41.882;12.530;2023-04-22T00:51:29;100781.75;;;13.81;77.20
54948;BME280;41113;41.882;12.530;2023-04-22T00:53:57;100795.78;;;13.85;76.88
54948;BME280;41113;41.882;12.530;2023-04-22T00:56:26;100805.72;;;13.84;76.54
54948;BME280;41113;41.882;12.530;2023-04-22T00:58:56;100800.31;;;13.84;77.09
54948;BME280;41113;41.882;12.530;2023-04-22T01:01:22;100804.66;;;13.77;77.69
54948;BME280;41113;41.882;12.530;2023-04-22T01:03:48;100807.66;;;13.74;77.19
54948;BME280;41113;41.882;12.530;2023-04-22T01:06:17;100806.28;;;13.70;78.05
54948;BME280;41113;41.882;12.530;2023-04-22T01:08:44;100806.16;;;13.62;78.46
54948;BME280;41113;41.882;12.530;2023-04-22T01:11:10;100813.56;;;13.60;78.52
54948;BME280;41113;41.882;12.530;2023-04-22T01:13:35;100815.56;;;13.58;78.76
54948;BME280;41113;41.882;12.530;2023-04-22T01:16:03;100811.03;;;13.58;78.55
54948;BME280;41113;41.882;12.530;2023-04-22T01:18:31;100812.34;;;13.54;79.04
54948;BME280;41113;41.882;12.530;2023-04-22T01:20:57;100813.50;;;13.52;79.14
54948;BME280;41113;41.882;12.530;2023-04-22T01:23:22;100812.41;;;13.45;79.07
54948;BME280;41113;41.882;12.530;2023-04-22T01:25:48;100817.41;;;13.39;79.73
54948;BME280;41113;41.882;12.530;2023-04-22T01:28:14;100815.72;;;13.38;79.77
54948;BME280;41113;41.882;12.530;2023-04-22T01:30:41;100821.13;;;13.38;79.87
54948;BME280;41113;41.882;12.530;2023-04-22T01:33:11;100817.72;;;13.36;79.96
54948;BME280;41113;41.882;12.530;2023-04-22T01:35:37;100810.63;;;13.35;79.82
54948;BME280;41113;41.882;12.530;2023-04-22T01:38:03;100823.13;;;13.36;79.96
54948;BME280;41113;41.882;12.530;2023-04-22T01:40:33;100822.81;;;13.39;79.76
54948;BME280;41113;41.882;12.530;2023-04-22T01:42:59;100826.38;;;13.30;79.96
54948;BME280;41113;41.882;12.530;2023-04-22T01:45:27;100823.13;;;13.36;79.78
54948;BME280;41113;41.882;12.530;2023-04-22T01:47:54;100826.81;;;13.35;79.48
54948;BME280;41113;41.882;12.530;2023-04-22T01:50:20;100825.25;;;13.33;79.80
54948;BME280;41113;41.882;12.530;2023-04-22T01:52:47;100828.81;;;13.33;79.57
54948;BME280;41113;41.882;12.530;2023-04-22T01:55:12;100820.81;;;13.42;79.08
54948;BME280;41113;41.882;12.530;2023-04-22T01:57:37;100818.81;;;13.44;79.36
54948;BME280;41113;41.882;12.530;2023-04-22T02:00:04;100827.09;;;13.32;79.43
54948;BME280;41113;41.882;12.530;2023-04-22T02:02:30;100822.69;;;13.31;79.36
54948;BME280;41113;41.882;12.530;2023-04-22T02:04:56;100823.41;;;13.33;79.28
54948;BME280;41113;41.882;12.530;2023-04-22T02:07:21;100827.09;;;13.32;79.44
54948;BME280;41113;41.882;12.530;2023-04-22T02:09:47;100821.69;;;13.32;79.50
54948;BME280;41113;41.882;12.530;2023-04-22T02:12:12;100813.59;;;13.32;79.63
54948;BME280;41113;41.882;12.530;2023-04-22T02:14:37;100821.31;;;13.27;80.09
54948;BME280;41113;41.882;12.530;2023-04-22T02:17:03;100828.72;;;13.16;80.39
54948;BME280;41113;41.882;12.530;2023-04-22T02:19:28;100825.78;;;13.09;80.70
54948;BME280;41113;41.882;12.530;2023-04-22T02:21:54;100824.09;;;13.08;80.42
54948;BME280;41113;41.882;12.530;2023-04-22T02:24:19;100831.63;;;13.04;79.73
54948;BME280;41113;41.882;12.530;2023-04-22T02:26:45;100826.66;;;13.00;79.86
54948;BME280;41113;41.882;12.530;2023-04-22T02:29:12;100831.78;;;13.03;79.94
54948;BME280;41113;41.882;12.530;2023-04-22T02:31:38;100835.47;;;13.02;79.77
54948;BME280;41113;41.882;12.530;2023-04-22T02:34:04;100832.16;;;13.08;79.45
54948;BME280;41113;41.882;12.530;2023-04-22T02:36:29;100825.78;;;13.09;78.90
54948;BME280;41113;41.882;12.530;2023-04-22T02:38:57;100833.16;;;13.07;78.70
54948;BME280;41113;41.882;12.530;2023-04-22T02:41:23;100831.47;;;13.06;78.50
54948;BME280;41113;41.882;12.530;2023-04-22T02:43:48;100829.06;;;13.03;78.36
54948;BME280;41113;41.882;12.530;2023-04-22T02:46:14;100826.78;;;13.08;78.31
54948;BME280;41113;41.882;12.530;2023-04-22T02:48:42;100826.94;;;13.06;78.21
54948;BME280;41113;41.882;12.530;2023-04-22T02:51:07;100826.38;;;13.03;78.21
54948;BME280;41113;41.882;12.530;2023-04-22T02:53:33;100827.25;;;12.94;78.67
54948;BME280;41113;41.882;12.530;2023-04-22T02:55:58;100822.00;;;12.92;78.41
54948;BME280;41113;41.882;12.530;2023-04-22T02:58:24;100826.09;;;12.96;78.20
54948;BME280;41113;41.882;12.530;2023-04-22T03:00:50;100830.34;;;12.99;78.40
54948;BME280;41113;41.882;12.530;2023-04-22T03:03:16;100826.78;;;12.98;78.42
54948;BME280;41113;41.882;12.530;2023-04-22T03:05:41;100825.56;;;12.93;78.39
54948;BME280;41113;41.882;12.530;2023-04-22T03:08:06;100827.53;;;12.91;78.40
54948;BME280;41113;41.882;12.530;2023-04-22T03:10:32;100829.94;;;12.94;78.09
54948;BME280;41113;41.882;12.530;2023-04-22T03:12:57;100823.94;;;13.00;77.75
54948;BME280;41113;41.882;12.530;2023-04-22T03:15:23;100826.94;;;12.97;77.96
54948;BME280;41113;41.882;12.530;2023-04-22T03:17:48;100834.34;;;12.95;78.04
54948;BME280;41113;41.882;12.530;2023-04-22T03:20:14;100839.44;;;12.98;77.70
54948;BME280;41113;41.882;12.530;2023-04-22T03:22:39;100840.34;;;13.16;77.33
54948;BME280;41113;41.882;12.530;2023-04-22T03:25:05;100839.97;;;13.11;77.17
54948;BME280;41113;41.882;12.530;2023-04-22T03:27:31;100847.81;;;13.04;77.66
54948;BME280;41113;41.882;12.530;2023-04-22T03:29:56;100838.03;;;12.94;78.31
54948;BME280;41113;41.882;12.530;2023-04-22T03:32:22;100846.25;;;13.02;78.29
54948;BME280;41113;41.882;12.530;2023-04-22T03:34:47;100839.44;;;12.98;78.56
54948;BME280;41113;41.882;12.530;2023-04-22T03:37:12;100844.56;;;13.01;78.43
54948;BME280;41113;41.882;12.530;2023-04-22T03:39:39;100841.03;;;12.91;78.70
54948;BME280;41113;41.882;12.530;2023-04-22T03:42:04;100846.59;;;12.80;79.09
54948;BME280;41113;41.882;12.530;2023-04-22T03:44:30;100846.91;;;12.76;79.14
54948;BME280;41113;41.882;12.530;2023-04-22T03:46:55;100846.91;;;12.76;78.96
54948;BME280;41113;41.882;12.530;2023-04-22T03:49:20;100850.88;;;12.72;79.10
54948;BME280;41113;41.882;12.530;2023-04-22T03:51:46;100851.19;;;12.69;79.08
54948;BME280;41113;41.882;12.530;2023-04-22T03:54:11;100850.44;;;12.67;79.09
54948;BME280;41113;41.882;12.530;2023-04-22T03:56:36;100849.47;;;12.68;78.86
54948;BME280;41113;41.882;12.530;2023-04-22T03:59:02;100845.78;;;12.69;79.11
54948;BME280;41113;41.882;12.530;2023-04-22T04:01:27;100851.88;;;12.71;78.90
54948;BME280;41113;41.882;12.530;2023-04-22T04:03:52;100850.28;;;12.78;78.67
54948;BME280;41113;41.882;12.530;2023-04-22T04:06:19;100847.16;;;12.83;78.09
54948;BME280;41113;41.882;12.530;2023-04-22T04:08:45;100846.13;;;12.94;77.69
54948;BME280;41113;41.882;12.530;2023-04-22T04:11:10;100849.25;;;12.89;77.21
54948;BME280;41113;41.882;12.530;2023-04-22T04:13:36;100852.22;;;12.96;77.06
54948;BME280;41113;41.882;12.530;2023-04-22T04:16:01;100852.22;;;12.96;77.22
54948;BME280;41113;41.882;12.530;2023-04-22T04:18:28;100857.19;;;12.91;77.23
54948;BME280;41113;41.882;12.530;2023-04-22T04:20:54;100859.88;;;12.91;77.41
54948;BME280;41113;41.882;12.530;2023-04-22T04:23:20;100853.50;;;12.92;77.21
54948;BME280;41113;41.882;12.530;2023-04-22T04:25:45;100865.88;;;12.85;77.43
54948;BME280;41113;41.882;12.530;2023-04-22T04:28:12;100868.44;;;12.86;77.25
54948;BME280;41113;41.882;12.530;2023-04-22T04:30:38;100866.47;;;12.78;77.32
54948;BME280;41113;41.882;12.530;2023-04-22T04:33:05;100876.25;;;12.80;77.15
54948;BME280;41113;41.882;12.530;2023-04-22T04:35:32;100872.44;;;12.72;77.10
54948;BME280;41113;41.882;12.530;2023-04-22T04:38:03;100865.56;;;12.88;76.60
54948;BME280;41113;41.882;12.530;2023-04-22T04:40:29;100868.56;;;13.31;74.48
54948;BME280;41113;41.882;12.530;2023-04-22T04:42:55;100872.38;;;13.66;73.35
54948;BME280;41113;41.882;12.530;2023-04-22T04:45:22;100879.38;;;13.77;72.41
54948;BME280;41113;41.882;12.530;2023-04-22T04:47:48;100870.84;;;14.17;71.69
54948;BME280;41113;41.882;12.530;2023-04-22T04:50:17;100865.41;;;15.72;67.14
54948;BME280;41113;41.882;12.530;2023-04-22T04:52:42;100872.50;;;17.20;61.65
54948;BME280;41113;41.882;12.530;2023-04-22T04:55:08;100865.34;;;17.35;59.62
54948;BME280;41113;41.882;12.530;2023-04-22T04:57:33;100867.00;;;16.64;60.91
54948;BME280;41113;41.882;12.530;2023-04-22T04:59:59;100874.28;;;16.88;61.30
54948;BME280;41113;41.882;12.530;2023-04-22T05:02:25;100873.84;;;18.02;58.12
54948;BME280;41113;41.882;12.530;2023-04-22T05:04:50;100878.28;;;19.16;55.65
54948;BME280;41113;41.882;12.530;2023-04-22T05:07:16;100893.31;;;19.41;51.80
54948;BME280;41113;41.882;12.530;2023-04-22T05:09:41;100883.59;;;20.19;49.62
54948;BME280;41113;41.882;12.530;2023-04-22T05:12:06;100885.69;;;20.88;49.81
54948;BME280;41113;41.882;12.530;2023-04-22T05:14:32;100897.53;;;19.73;50.35
54948;BME280;41113;41.882;12.530;2023-04-22T05:16:57;100896.69;;;18.39;54.58
54948;BME280;41113;41.882;12.530;2023-04-22T05:19:23;100895.44;;;18.18;53.49
54948;BME280;41113;41.882;12.530;2023-04-22T05:21:48;100890.72;;;17.50;56.16
54948;BME280;41113;41.882;12.530;2023-04-22T05:24:13;100899.75;;;17.82;54.49
54948;BME280;41113;41.882;12.530;2023-04-22T05:26:38;100899.34;;;18.24;52.79
54948;BME280;41113;41.882;12.530;2023-04-22T05:29:04;100905.84;;;17.92;54.92
54948;BME280;41113;41.882;12.530;2023-04-22T05:31:32;100904.28;;;18.20;53.49
54948;BME280;41113;41.882;12.530;2023-04-22T05:33:58;100922.38;;;18.96;51.76
54948;BME280;41113;41.882;12.530;2023-04-22T05:36:23;100915.66;;;18.24;52.21
54948;BME280;41113;41.882;12.530;2023-04-22T05:38:48;100928.13;;;18.10;53.74
54948;BME280;41113;41.882;12.530;2023-04-22T05:41:14;100921.31;;;18.83;52.64
54948;BME280;41113;41.882;12.530;2023-04-22T05:43:40;100930.19;;;18.62;52.08
54948;BME280;41113;41.882;12.530;2023-04-22T05:46:05;100931.25;;;18.76;51.30
54948;BME280;41113;41.882;12.530;2023-04-22T05:48:31;100937.31;;;18.63;52.71
54948;BME280;41113;41.882;12.530;2023-04-22T05:50:56;100936.03;;;19.26;49.18
54948;BME280;41113;41.882;12.530;2023-04-22T05:53:23;100944.38;;;19.98;48.83
54948;BME280;41113;41.882;12.530;2023-04-22T05:55:48;100948.91;;;19.91;47.61
54948;BME280;41113;41.882;12.530;2023-04-22T05:58:14;100944.44;;;18.64;52.38
54948;BME280;41113;41.882;12.530;2023-04-22T06:00:39;100941.66;;;18.72;50.94
54948;BME280;41113;41.882;12.530;2023-04-22T06:03:05;100938.63;;;18.21;52.86
54948;BME280;41113;41.882;12.530;2023-04-22T06:05:30;100932.72;;;19.16;51.72
54948;BME280;41113;41.882;12.530;2023-04-22T06:07:56;100927.03;;;20.20;50.83
54948;BME280;41113;41.882;12.530;2023-04-22T06:10:21;100930.22;;;20.88;49.23
54948;BME280;41113;41.882;12.530;2023-04-22T06:12:46;100931.72;;;21.94;47.37
54948;BME280;41113;41.882;12.530;2023-04-22T06:15:12;100933.53;;;22.15;46.80
54948;BME280;41113;41.882;12.530;2023-04-22T06:17:37;100937.84;;;21.96;43.98
54948;BME280;41113;41.882;12.530;2023-04-22T06:20:03;100942.84;;;19.60;48.35
54948;BME280;41113;41.882;12.530;2023-04-22T06:22:29;100944.50;;;19.31;50.12
54948;BME280;41113;41.882;12.530;2023-04-22T06:24:54;100945.22;;;20.77;47.96
54948;BME280;41113;41.882;12.530;2023-04-22T06:27:19;100940.75;;;20.91;46.31
54948;BME280;41113;41.882;12.530;2023-04-22T06:29:45;100948.50;;;20.66;46.90
54948;BME280;41113;41.882;12.530;2023-04-22T06:32:10;100948.13;;;21.47;44.99
54948;BME280;41113;41.882;12.530;2023-04-22T06:34:35;100950.19;;;22.40;42.96
54948;BME280;41113;41.882;12.530;2023-04-22T06:37:02;100946.41;;;20.90;45.25
54948;BME280;41113;41.882;12.530;2023-04-22T06:39:29;100959.47;;;19.65;48.98
54948;BME280;41113;41.882;12.530;2023-04-22T06:41:54;100953.25;;;18.89;51.31
54948;BME280;41113;41.882;12.530;2023-04-22T06:44:20;100952.03;;;18.46;52.89
54948;BME280;41113;41.882;12.530;2023-04-22T06:46:46;100952.16;;;18.29;53.84
54948;BME280;41113;41.882;12.530;2023-04-22T06:49:11;100953.59;;;18.40;53.92
54948;BME280;41113;41.882;12.530;2023-04-22T06:51:36;100957.09;;;18.49;54.00
54948;BME280;41113;41.882;12.530;2023-04-22T06:54:02;100953.31;;;18.04;54.69
54948;BME280;41113;41.882;12.530;2023-04-22T06:56:27;100957.69;;;18.13;54.81
54948;BME280;41113;41.882;12.530;2023-04-22T06:58:53;100955.91;;;18.28;54.08
54948;BME280;41113;41.882;12.530;2023-04-22T07:01:20;100962.38;;;18.19;54.84
54948;BME280;41113;41.882;12.530;2023-04-22T07:03:46;100951.88;;;18.16;54.92
54948;BME280;41113;41.882;12.530;2023-04-22T07:06:11;100956.22;;;18.02;54.59
54948;BME280;41113;41.882;12.530;2023-04-22T07:08:36;100956.94;;;18.19;54.60
54948;BME280;41113;41.882;12.530;2023-04-22T07:11:02;100954.59;;;18.16;54.66
54948;BME280;41113;41.882;12.530;2023-04-22T07:13:27;100952.63;;;18.33;54.75
54948;BME280;41113;41.882;12.530;2023-04-22T07:15:53;100948.88;;;18.34;54.06
54948;BME280;41113;41.882;12.530;2023-04-22T07:18:18;100950.72;;;18.87;53.23
54948;BME280;41113;41.882;12.530;2023-04-22T07:20:44;100948.28;;;18.92;53.13
54948;BME280;41113;41.882;12.530;2023-04-22T07:23:09;100951.31;;;19.12;52.63
54948;BME280;41113;41.882;12.530;2023-04-22T07:25:34;100945.03;;;19.12;52.54
54948;BME280;41113;41.882;12.530;2023-04-22T07:28:00;100949.25;;;19.00;52.96
54948;BME280;41113;41.882;12.530;2023-04-22T07:30:25;100952.47;;;18.80;53.68
54948;BME280;41113;41.882;12.530;2023-04-22T07:32:50;100951.75;;;18.86;53.41
54948;BME280;41113;41.882;12.530;2023-04-22T07:35:16;100944.09;;;18.67;53.84
54948;BME280;41113;41.882;12.530;2023-04-22T07:37:42;100942.31;;;19.12;52.89
54948;BME280;41113;41.882;12.530;2023-04-22T07:40:08;100938.53;;;19.13;52.73
54948;BME280;41113;41.882;12.530;2023-04-22T07:42:38;100947.00;;;19.18;52.22
54948;BME280;41113;41.882;12.530;2023-04-22T07:45:05;100950.75;;;19.17;52.61
54948;BME280;41113;41.882;12.530;2023-04-22T07:47:30;100951.31;;;18.98;52.62
54948;BME280;41113;41.882;12.530;2023-04-22T07:49:56;100943.84;;;19.29;52.66
54948;BME280;41113;41.882;12.530;2023-04-22T07:52:21;100951.72;;;19.83;51.10
54948;BME280;41113;41.882;12.530;2023-04-22T07:54:46;100945.03;;;20.00;51.17
54948;BME280;41113;41.882;12.530;2023-04-22T07:57:12;100949.91;;;20.41;50.48
54948;BME280;41113;41.882;12.530;2023-04-22T07:59:37;100954.81;;;20.31;49.93
54948;BME280;41113;41.882;12.530;2023-04-22T08:02:03;100953.97;;;20.30;50.00
54948;BME280;41113;41.882;12.530;2023-04-22T08:04:28;100951.31;;;20.37;50.70
54948;BME280;41113;41.882;12.530;2023-04-22T08:06:54;100957.94;;;20.64;49.99
54948;BME280;41113;41.882;12.530;2023-04-22T08:09:20;100952.53;;;20.49;50.10
54948;BME280;41113;41.882;12.530;2023-04-22T08:11:45;100947.59;;;20.59;50.20
54948;BME280;41113;41.882;12.530;2023-04-22T08:14:11;100948.91;;;20.63;49.91
54948;BME280;41113;41.882;12.530;2023-04-22T08:16:37;100953.41;;;20.49;50.01
54948;BME280;41113;41.882;12.530;2023-04-22T08:19:04;100953.56;;;20.69;50.12
54948;BME280;41113;41.882;12.530;2023-04-22T08:21:30;100952.13;;;20.95;49.55
54948;BME280;41113;41.882;12.530;2023-04-22T08:23:55;100952.44;;;21.13;49.26
54948;BME280;41113;41.882;12.530;2023-04-22T08:26:22;100953.66;;;21.25;48.64
54948;BME280;41113;41.882;12.530;2023-04-22T08:28:48;100958.34;;;21.38;48.36
54948;BME280;41113;41.882;12.530;2023-04-22T08:31:13;100945.47;;;21.04;49.13
54948;BME280;41113;41.882;12.530;2023-04-22T08:33:39;100949.47;;;21.08;47.61
54948;BME280;41113;41.882;12.530;2023-04-22T08:36:06;100956.53;;;20.74;49.19
54948;BME280;41113;41.882;12.530;2023-04-22T08:38:32;100951.34;;;20.79;49.11
54948;BME280;41113;41.882;12.530;2023-04-22T08:40:58;100947.44;;;20.89;49.23
54948;BME280;41113;41.882;12.530;2023-04-22T08:43:25;100950.91;;;21.25;48.58
54948;BME280;41113;41.882;12.530;2023-04-22T08:45:51;100949.94;;;21.39;48.35
54948;BME280;41113;41.882;12.530;2023-04-22T08:48:17;100947.09;;;21.54;47.70
54948;BME280;41113;41.882;12.530;2023-04-22T08:50:43;100949.94;;;21.39;47.96
54948;BME280;41113;41.882;12.530;2023-04-22T08:53:11;100942.75;;;21.32;45.62
54948;BME280;41113;41.882;12.530;2023-04-22T08:55:37;100941.94;;;21.38;47.63
54948;BME280;41113;41.882;12.530;2023-04-22T08:58:05;100939.09;;;21.53;47.16
54948;BME280;41113;41.882;12.530;2023-04-22T09:00:31;100942.34;;;21.69;46.65
54948;BME280;41113;41.882;12.530;2023-04-22T09:03:00;100937.59;;;21.91;46.24
54948;BME280;41113;41.882;12.530;2023-04-22T09:05:27;100939.38;;;22.05;45.65
54948;BME280;41113;41.882;12.530;2023-04-22T09:07:52;100937.50;;;21.71;45.41
54948;BME280;41113;41.882;12.530;2023-04-22T09:10:18;100947.06;;;21.48;46.50
54948;BME280;41113;41.882;12.530;2023-04-22T09:12:45;100941.06;;;21.65;46.48
54948;BME280;41113;41.882;12.530;2023-04-22T09:15:11;100934.41;;;21.81;46.19
54948;BME280;41113;41.882;12.530;2023-04-22T09:17:36;100938.34;;;21.72;46.25
54948;BME280;41113;41.882;12.530;2023-04-22T09:20:06;100939.63;;;21.76;46.13
54948;BME280;41113;41.882;12.530;2023-04-22T09:22:42;100937.16;;;21.81;44.33
54948;BME280;41113;41.882;12.530;2023-04-22T09:25:18;100933.81;;;21.86;43.96
54948;BME280;41113;41.882;12.530;2023-04-22T09:27:52;100932.13;;;21.91;43.80
54948;BME280;41113;41.882;12.530;2023-04-22T09:30:26;100931.31;;;21.97;44.20
54948;BME280;41113;41.882;12.530;2023-04-22T09:33:03;100932.38;;;21.96;45.00
54948;BME280;41113;41.882;12.530;2023-04-22T09:35:31;100929.00;;;22.01;43.91
54948;BME280;41113;41.882;12.530;2023-04-22T09:37:58;100927.72;;;21.90;44.01
54948;BME280;41113;41.882;12.530;2023-04-22T09:40:24;100926.97;;;21.68;44.42
54948;BME280;41113;41.882;12.530;2023-04-22T09:42:51;100920.66;;;21.61;43.35
54948;BME280;41113;41.882;12.530;2023-04-22T09:45:25;100923.56;;;21.53;41.83
54948;BME280;41113;41.882;12.530;2023-04-22T09:47:53;100917.25;;;21.53;43.51
54948;BME280;41113;41.882;12.530;2023-04-22T09:50:20;100911.50;;;21.82;43.84
54948;BME280;41113;41.882;12.530;2023-04-22T09:52:53;100912.22;;;22.11;43.16
54948;BME280;41113;41.882;12.530;2023-04-22T09:55:21;100907.88;;;22.29;42.84
54948;BME280;41113;41.882;12.530;2023-04-22T09:57:50;100907.88;;;22.29;41.79
54948;BME280;41113;41.882;12.530;2023-04-22T10:00:16;100901.97;;;22.26;42.82
54948;BME280;41113;41.882;12.530;2023-04-22T10:02:42;100896.09;;;22.29;43.09
54948;BME280;41113;41.882;12.530;2023-04-22T10:05:09;100900.09;;;22.33;42.72
54948;BME280;41113;41.882;12.530;2023-04-22T10:07:37;100893.97;;;22.24;42.12
54948;BME280;41113;41.882;12.530;2023-04-22T10:10:07;100899.44;;;22.24;41.56
54948;BME280;41113;41.882;12.530;2023-04-22T10:12:36;100898.19;;;22.33;39.21
54948;BME280;41113;41.882;12.530;2023-04-22T10:15:05;100902.00;;;22.52;41.50
54948;BME280;41113;41.882;12.530;2023-04-22T10:17:33;100904.97;;;22.57;41.56
54948;BME280;41113;41.882;12.530;2023-04-22T10:20:02;100906.66;;;22.52;41.57
54948;BME280;41113;41.882;12.530;2023-04-22T10:22:30;100899.69;;;22.49;41.96
54948;BME280;41113;41.882;12.530;2023-04-22T10:24:58;100896.13;;;22.55;42.12
54948;BME280;41113;41.882;12.530;2023-04-22T10:27:24;100893.59;;;22.60;41.69
54948;BME280;41113;41.882;12.530;2023-04-22T10:29:49;100889.38;;;22.51;41.74
54948;BME280;41113;41.882;12.530;2023-04-22T10:34:47;100883.25;;;22.36;40.35
54948;BME280;41113;41.882;12.530;2023-04-22T10:37:17;100885.38;;;22.47;40.86
54948;BME280;41113;41.882;12.530;2023-04-22T10:40:09;100883.50;;;22.54;40.06
54948;BME280;41113;41.882;12.530;2023-04-22T10:42:39;100885.16;;;22.49;41.15
54948;BME280;41113;41.882;12.530;2023-04-22T10:45:06;100888.53;;;22.51;41.16
54948;BME280;41113;41.882;12.530;2023-04-22T10:47:35;100888.13;;;22.54;41.03
54948;BME280;41113;41.882;12.530;2023-04-22T10:52:40;100877.59;;;22.57;40.88
54948;BME280;41113;41.882;12.530;2023-04-22T10:55:06;100879.69;;;22.55;39.86
54948;BME280;41113;41.882;12.530;2023-04-22T10:57:37;100874.00;;;22.50;40.11
54948;BME280;41113;41.882;12.530;2023-04-22T11:00:18;100871.91;;;22.52;38.50
54948;BME280;41113;41.882;12.530;2023-04-22T11:02:45;100881.78;;;22.66;39.86
54948;BME280;41113;41.882;12.530;2023-04-22T11:07:48;100879.72;;;22.82;39.52
54948;BME280;41113;41.882;12.530;2023-04-22T11:10:33;100874.66;;;22.79;37.21
54948;BME280;41113;41.882;12.530;2023-04-22T11:13:00;100875.91;;;22.63;37.64
54948;BME280;41113;41.882;12.530;2023-04-22T11:15:28;100872.97;;;22.51;37.33
54948;BME280;41113;41.882;12.530;2023-04-22T11:17:54;100871.69;;;22.54;37.61
54948;BME280;41113;41.882;12.530;2023-04-22T11:20:20;100870.44;;;22.50;37.49
54948;BME280;41113;41.882;12.530;2023-04-22T11:22:55;100862.81;;;22.39;37.14
54948;BME280;41113;41.882;12.530;2023-04-22T11:25:23;100860.13;;;22.45;36.10
54948;BME280;41113;41.882;12.530;2023-04-22T11:27:49;100861.59;;;22.48;36.74
54948;BME280;41113;41.882;12.530;2023-04-22T11:30:19;100853.59;;;22.59;35.93
54948;BME280;41113;41.882;12.530;2023-04-22T11:32:50;100852.75;;;22.79;35.53
54948;BME280;41113;41.882;12.530;2023-04-22T11:35:22;100855.28;;;22.87;36.23
54948;BME280;41113;41.882;12.530;2023-04-22T11:37:50;100845.13;;;23.01;37.09
54948;BME280;41113;41.882;12.530;2023-04-22T11:40:18;100845.78;;;22.96;37.23
54948;BME280;41113;41.882;12.530;2023-04-22T11:42:44;100848.94;;;22.93;37.36
54948;BME280;41113;41.882;12.530;2023-04-22T11:45:10;100846.84;;;22.95;37.42
54948;BME280;41113;41.882;12.530;2023-04-22T11:47:40;100848.56;;;22.83;37.80
54948;BME280;41113;41.882;12.530;2023-04-22T11:50:07;100845.19;;;22.81;37.60
54948;BME280;41113;41.882;12.530;2023-04-22T11:55:27;100844.28;;;22.74;36.31
54948;BME280;41113;41.882;12.530;2023-04-22T11:58:10;100845.56;;;22.64;34.36
54948;BME280;41113;41.882;12.530;2023-04-22T12:00:42;100849.34;;;22.70;36.14
54948;BME280;41113;41.882;12.530;2023-04-22T12:03:18;100841.34;;;22.68;35.75
54948;BME280;41113;41.882;12.530;2023-04-22T12:05:53;100842.19;;;22.69;37.18
54948;BME280;41113;41.882;12.530;2023-04-22T12:08:33;100846.19;;;22.66;37.61
54948;BME280;41113;41.882;12.530;2023-04-22T12:11:06;100847.03;;;22.74;39.52
54948;BME280;41113;41.882;12.530;2023-04-22T12:13:41;100838.41;;;22.77;40.74
54948;BME280;41113;41.882;12.530;2023-04-22T12:16:16;100840.50;;;22.75;41.76
54948;BME280;41113;41.882;12.530;2023-04-22T12:18:49;100836.72;;;22.69;41.51
54948;BME280;41113;41.882;12.530;2023-04-22T12:21:23;100836.31;;;22.65;42.69
54948;BME280;41113;41.882;12.530;2023-04-22T12:23:54;100837.16;;;22.59;42.48
54948;BME280;41113;41.882;12.530;2023-04-22T12:26:22;100838.84;;;22.60;42.59
54948;BME280;41113;41.882;12.530;2023-04-22T12:28:49;100833.78;;;22.57;42.94
54948;BME280;41113;41.882;12.530;2023-04-22T12:31:15;100827.69;;;22.55;42.87
54948;BME280;41113;41.882;12.530;2023-04-22T12:33:41;100832.94;;;22.63;42.68
54948;BME280;41113;41.882;12.530;2023-04-22T12:36:07;100832.50;;;22.66;42.86
54948;BME280;41113;41.882;12.530;2023-04-22T12:38:33;100828.72;;;22.67;42.95
54948;BME280;41113;41.882;12.530;2023-04-22T12:41:01;100832.50;;;22.66;43.11
54948;BME280;41113;41.882;12.530;2023-04-22T12:43:26;100831.47;;;22.67;43.04
54948;BME280;41113;41.882;12.530;2023-04-22T12:45:52;100834.63;;;22.64;43.35
54948;BME280;41113;41.882;12.530;2023-04-22T12:48:17;100832.31;;;22.61;43.25